Time;durP1;ratioP1;P1;durP2;ratioP2;P2;SDS_P1;SDS_P2;PMS_P1;PMS_P2;Temp;Humidity;BMP_temperature;BMP_pressure;BME280_temperature;BME280_humidity;BME280_pressure;Samples;Min_cycle;Max_cycle;Signal;HPM_P1;HPM_P2
2022/03/03 00:00:24;;;;;;;17.93;16.37;;;;;;;-0.62;64.85;98926.53;4126235;28;20212;-49
2022/03/03 00:02:25;;;;;;;18.40;16.63;;;;;;;-0.60;64.60;98916.44;4139714;28;20253;-48
2022/03/03 00:04:28;;;;;;;18.43;16.63;;;;;;;-0.61;64.43;98910.22;4145990;28;20205;-50
2022/03/03 00:06:29;;;;;;;21.63;16.70;;;;;;;-0.63;65.03;98919.44;4141746;28;20205;-49
2022/03/03 00:08:31;;;;;;;17.13;15.43;;;;;;;-0.71;64.89;98914.09;4137099;28;20256;-50
2022/03/03 00:10:33;;;;;;;14.90;13.50;;;;;;;-0.69;64.78;98914.78;4158682;28;20259;-48
2022/03/03 00:12:35;;;;;;;15.10;13.70;;;;;;;-0.68;64.90;98917.28;4140711;28;20319;-50
2022/03/03 00:14:36;;;;;;;15.00;13.60;;;;;;;-0.65;64.68;98919.66;4127032;28;20297;-47
2022/03/03 00:16:38;;;;;;;17.40;15.70;;;;;;;-0.65;64.73;98921.47;4143301;28;20252;-49
2022/03/03 00:18:40;;;;;;;15.07;13.67;;;;;;;-0.66;64.39;98915.28;4157601;28;20295;-51
2022/03/03 00:20:42;;;;;;;16.20;14.70;;;;;;;-0.69;64.71;98920.16;4157235;28;20218;-50
2022/03/03 00:22:44;;;;;;;16.20;14.90;;;;;;;-0.68;64.74;98917.28;4152062;28;20202;-48
2022/03/03 00:24:48;;;;;;;16.47;14.87;;;;;;;-0.67;64.76;98918.13;4158055;28;20571;-50
2022/03/03 00:26:50;;;;;;;16.67;15.00;;;;;;;-0.71;64.83;98916.78;4142546;28;20228;-48
2022/03/03 00:28:52;;;;;;;17.47;13.53;;;;;;;-0.76;65.12;98919.13;4142817;28;20600;-48
2022/03/03 00:30:53;;;;;;;17.87;16.20;;;;;;;-0.76;64.99;98919.13;4172661;28;20262;-49
2022/03/03 00:32:55;;;;;;;16.80;15.10;;;;;;;-0.76;64.91;98920.00;4141239;28;20713;-49
2022/03/03 00:34:57;;;;;;;16.70;15.10;;;;;;;-0.75;64.88;98926.22;4136036;28;20216;-51
2022/03/03 00:36:59;;;;;;;15.93;14.50;;;;;;;-0.76;64.91;98924.50;4154876;28;20583;-50
2022/03/03 00:39:03;;;;;;;17.17;15.67;;;;;;;-0.79;64.62;98932.91;4142251;28;20225;-49
2022/03/03 00:41:04;;;;;;;17.87;16.10;;;;;;;-0.81;65.00;98926.88;4159035;28;20212;-48
2022/03/03 00:43:06;;;;;;;17.70;14.60;;;;;;;-0.89;64.94;98924.22;4156953;28;20209;-48
2022/03/03 00:45:09;;;;;;;17.73;16.03;;;;;;;-0.91;65.45;98923.50;4141220;28;20216;-50
2022/03/03 00:47:10;;;;;;;23.67;16.60;;;;;;;-0.93;65.17;98922.84;4140444;28;20743;-49
2022/03/03 00:49:12;;;;;;;16.80;15.37;;;;;;;-0.98;65.37;98919.81;4136029;28;20209;-48
2022/03/03 00:51:14;;;;;;;16.63;14.90;;;;;;;-1.02;65.41;98915.81;4142119;28;20873;-49
2022/03/03 00:53:16;;;;;;;16.23;14.83;;;;;;;-1.03;65.46;98922.16;4137855;28;20670;-48
2022/03/03 00:55:17;;;;;;;17.07;15.43;;;;;;;-0.96;65.38;98912.44;4144893;28;20235;-48
2022/03/03 00:57:19;;;;;;;16.73;15.17;;;;;;;-1.02;65.58;98921.19;4156623;28;20239;-48
2022/03/03 00:59:21;;;;;;;14.60;13.03;;;;;;;-0.95;65.51;98909.59;4141680;28;20245;-48
2022/03/03 01:01:23;;;;;;;16.47;14.93;;;;;;;-1.00;65.19;98916.47;4141614;28;20209;-49
2022/03/03 01:03:25;;;;;;;16.43;13.73;;;;;;;-1.03;65.39;98916.78;4159993;28;20337;-49
2022/03/03 01:05:27;;;;;;;13.33;12.23;;;;;;;-1.02;65.84;98918.50;4141359;28;20964;-48
2022/03/03 01:07:29;;;;;;;14.57;13.10;;;;;;;-1.04;65.55;98912.44;4144298;28;20287;-49
2022/03/03 01:09:30;;;;;;;13.83;12.73;;;;;;;-1.05;65.63;98918.81;4158379;28;20236;-48
2022/03/03 01:11:32;;;;;;;14.60;13.50;;;;;;;-1.08;65.31;98914.63;4128446;28;20251;-50
2022/03/03 01:13:34;;;;;;;15.43;14.03;;;;;;;-1.08;65.41;98914.63;4128102;28;20234;-47
2022/03/03 01:15:36;;;;;;;16.23;14.53;;;;;;;-1.06;65.57;98914.47;4162295;28;20675;-48
2022/03/03 01:17:38;;;;;;;15.00;13.60;;;;;;;-1.05;65.61;98911.63;4162914;28;20228;-48
2022/03/03 01:19:41;;;;;;;14.13;12.90;;;;;;;-1.03;65.33;98911.41;4146234;28;20751;-50
2022/03/03 01:21:42;;;;;;;17.10;14.40;;;;;;;-1.04;65.30;98909.75;4163845;28;20631;-48
2022/03/03 01:23:44;;;;;;;16.07;14.47;;;;;;;-1.05;65.41;98911.63;4146239;28;20635;-48
2022/03/03 01:25:46;;;;;;;15.50;14.07;;;;;;;-1.06;65.64;98914.47;4160308;28;20209;-50
2022/03/03 01:27:47;;;;;;;16.60;13.83;;;;;;;-1.08;65.10;98908.44;4176530;28;20833;-48
2022/03/03 01:29:49;;;;;;;13.67;12.57;;;;;;;-1.10;65.57;98910.41;4146322;28;20209;-48
2022/03/03 01:31:51;;;;;;;15.37;14.17;;;;;;;-1.13;65.87;98905.41;4145372;28;20232;-48
2022/03/03 01:33:53;;;;;;;17.37;15.63;;;;;;;-1.17;65.68;98904.03;4145769;28;20301;-50
2022/03/03 01:35:55;;;;;;;14.80;13.50;;;;;;;-1.19;65.74;98901.53;4176387;28;20204;-51
2022/03/03 01:37:57;;;;;;;14.37;12.83;;;;;;;-1.20;65.75;98901.69;4163610;28;20240;-49
2022/03/03 01:39:58;;;;;;;16.40;13.93;;;;;;;-1.25;65.99;98899.53;4128230;28;20668;-49
2022/03/03 01:42:00;;;;;;;19.87;13.77;;;;;;;-1.26;66.02;98899.69;4177516;28;20204;-49
2022/03/03 01:44:03;;;;;;;17.23;15.57;;;;;;;-1.30;66.06;98898.31;4147576;28;20221;-48
2022/03/03 01:46:05;;;;;;;14.70;13.40;;;;;;;-1.36;66.00;98905.22;4143772;28;20213;-48
2022/03/03 01:48:07;;;;;;;17.23;14.70;;;;;;;-1.37;65.98;98900.00;4145255;28;20904;-48
2022/03/03 01:50:09;;;;;;;15.90;14.47;;;;;;;-1.41;65.85;98890.63;4144515;28;20728;-50
2022/03/03 01:52:11;;;;;;;15.70;14.33;;;;;;;-1.43;66.04;98880.03;4142386;28;20226;-49
2022/03/03 01:54:13;;;;;;;15.47;13.97;;;;;;;-1.43;65.92;98887.25;4145297;28;20208;-49
2022/03/03 01:56:16;;;;;;;16.10;14.63;;;;;;;-1.50;66.15;98891.59;4127870;28;20216;-50
2022/03/03 01:58:17;;;;;;;14.93;13.63;;;;;;;-1.49;65.88;98893.31;4136557;28;20229;-47
2022/03/03 02:00:19;;;;;;;15.63;14.30;;;;;;;-1.46;65.95;98890.28;4171124;28;20215;-49
2022/03/03 02:02:21;;;;;;;13.73;12.40;;;;;;;-1.43;66.19;98892.59;4139843;28;20217;-49
2022/03/03 02:04:23;;;;;;;13.47;12.37;;;;;;;-1.44;65.90;98877.53;4140104;28;20209;-48
2022/03/03 02:06:25;;;;;;;15.17;13.67;;;;;;;-1.45;65.85;98883.91;4159437;28;20744;-48
2022/03/03 02:08:27;;;;;;;16.70;15.20;;;;;;;-1.44;66.05;98875.69;4143801;28;20260;-48
2022/03/03 02:10:31;;;;;;;15.13;13.83;;;;;;;-1.46;66.25;98883.06;4174173;28;20231;-47
2022/03/03 02:12:33;;;;;;;15.27;13.90;;;;;;;-1.46;65.68;98882.22;4119869;28;20309;-50
2022/03/03 02:14:42;;;;;;;13.50;12.20;;;;;;;-1.49;66.10;98871.84;4141383;28;20777;-48
2022/03/03 02:16:44;;;;;;;16.03;14.67;;;;;;;-1.51;66.15;98884.56;4142938;28;20591;-47
2022/03/03 02:18:46;;;;;;;15.37;14.07;;;;;;;-1.53;66.12;98881.22;4140355;28;20249;-50
2022/03/03 02:20:48;;;;;;;15.30;13.70;;;;;;;-1.55;65.89;98873.31;4155136;28;20999;-48
2022/03/03 02:22:52;;;;;;;14.33;12.93;;;;;;;-1.56;66.15;98860.06;4145059;28;20217;-50
2022/03/03 02:24:54;;;;;;;14.83;13.63;;;;;;;-1.57;66.18;98863.75;4159640;28;20212;-50
2022/03/03 02:26:56;;;;;;;14.30;13.03;;;;;;;-1.58;66.00;98865.63;4142855;28;20689;-54
2022/03/03 02:28:58;;;;;;;15.13;13.83;;;;;;;-1.64;66.53;98860.06;4138081;28;20225;-50
2022/03/03 02:31:00;;;;;;;16.47;14.13;;;;;;;-1.67;66.40;98868.44;4088116;28;20229;-49
2022/03/03 02:33:02;;;;;;;13.63;12.40;;;;;;;-1.74;66.49;98854.03;4090584;28;20223;-53
2022/03/03 02:35:04;;;;;;;14.37;13.10;;;;;;;-1.75;66.47;98852.34;4126443;28;20199;-46
2022/03/03 02:37:06;;;;;;;14.23;12.87;;;;;;;-1.76;66.58;98853.31;4120553;28;20218;-48
2022/03/03 02:39:07;;;;;;;15.50;14.17;;;;;;;-1.80;66.93;98852.00;4121537;28;20780;-47
2022/03/03 02:41:09;;;;;;;15.23;13.60;;;;;;;-1.88;67.21;98854.66;4111832;28;20210;-47
2022/03/03 02:43:11;;;;;;;14.27;13.00;;;;;;;-1.86;67.43;98852.66;4118357;28;20217;-48
2022/03/03 02:45:13;;;;;;;17.67;14.03;;;;;;;-1.85;67.18;98851.63;4137475;28;20213;-48
2022/03/03 02:47:15;;;;;;;14.70;13.50;;;;;;;-1.84;67.48;98856.84;4112149;28;20683;-47
2022/03/03 02:49:17;;;;;;;15.73;14.23;;;;;;;-1.83;67.11;98852.31;4106083;28;20259;-50
2022/03/03 02:51:18;;;;;;;14.33;13.07;;;;;;;-1.82;66.91;98843.28;4102673;28;20310;-48
2022/03/03 02:53:20;;;;;;;16.00;14.57;;;;;;;-1.81;66.89;98853.00;4112006;28;20223;-47
2022/03/03 02:55:22;;;;;;;14.90;13.50;;;;;;;-1.85;66.93;98844.44;4135326;28;20213;-48
2022/03/03 02:59:43;;;;;;;16.30;14.70;;;;;;;-1.90;67.01;98843.25;4119266;28;20210;-49
2022/03/03 03:01:45;;;;;;;15.10;13.93;;;;;;;-1.90;67.03;98835.19;4133236;28;20751;-48
2022/03/03 03:03:47;;;;;;;15.23;13.83;;;;;;;-1.90;66.76;98829.84;4120108;28;20347;-47
2022/03/03 03:05:49;;;;;;;14.90;13.60;;;;;;;-1.90;66.79;98845.91;4105877;28;20851;-48
2022/03/03 03:07:51;;;;;;;17.00;15.50;;;;;;;-1.92;66.62;98838.06;4121351;28;20226;-48
2022/03/03 03:09:53;;;;;;;15.80;14.53;;;;;;;-1.96;66.84;98831.34;4111643;28;20214;-48
2022/03/03 03:11:55;;;;;;;14.93;13.73;;;;;;;-1.98;66.97;98837.88;4105398;28;20227;-47
2022/03/03 03:13:56;;;;;;;16.23;14.93;;;;;;;-1.98;67.08;98832.50;4111377;28;20235;-47
2022/03/03 03:15:58;;;;;;;16.10;14.57;;;;;;;-2.04;67.09;98828.66;4135607;28;20208;-50
2022/03/03 03:18:11;;;;;;;15.47;14.10;;;;;;;-2.03;66.94;98832.16;4106701;28;20223;-48
2022/03/03 03:20:13;;;;;;;17.10;15.30;;;;;;;-2.03;67.30;98834.84;4110043;28;20207;-49
2022/03/03 03:22:14;;;;;;;14.40;13.10;;;;;;;-2.02;67.29;98831.19;4114918;28;20774;-47
2022/03/03 03:24:16;;;;;;;14.13;13.00;;;;;;;-2.00;67.18;98829.16;4120991;28;20206;-47
2022/03/03 03:26:18;;;;;;;14.83;13.43;;;;;;;-2.00;67.11;98823.81;4119946;28;20582;-51
2022/03/03 03:28:20;;;;;;;13.67;12.47;;;;;;;-2.02;67.05;98832.00;4120085;28;20337;-47
2022/03/03 03:30:21;;;;;;;14.63;13.33;;;;;;;-2.02;66.89;98836.53;4119487;28;20211;-48
2022/03/03 03:32:23;;;;;;;16.43;14.93;;;;;;;-2.03;66.93;98834.84;4110062;28;20207;-48
2022/03/03 03:34:25;;;;;;;14.87;13.57;;;;;;;-2.05;67.18;98831.50;4133689;28;20255;-48
2022/03/03 03:36:30;;;;;;;14.73;13.33;;;;;;;-2.06;67.21;98829.81;4117814;28;20211;-49
2022/03/03 03:38:31;;;;;;;19.43;13.97;;;;;;;-2.07;67.16;98828.13;4110278;28;20246;-48
2022/03/03 03:40:33;;;;;;;15.47;14.10;;;;;;;-2.10;66.77;98828.44;4104861;28;20285;-47
2022/03/03 03:42:35;;;;;;;15.10;13.87;;;;;;;-2.17;67.09;98820.25;4119617;28;20202;-49
2022/03/03 03:44:38;;;;;;;15.70;14.57;;;;;;;-2.19;67.20;98824.06;4117314;28;20228;-48
2022/03/03 03:46:40;;;;;;;15.30;14.10;;;;;;;-2.26;67.38;98820.38;4134791;28;20592;-49
2022/03/03 03:48:41;;;;;;;15.43;14.20;;;;;;;-2.29;67.26;98813.50;4104362;28;20227;-49
2022/03/03 03:50:43;;;;;;;17.87;15.80;;;;;;;-2.28;67.73;98815.16;4103168;28;20725;-47
2022/03/03 03:52:45;;;;;;;16.30;14.70;;;;;;;-2.27;67.54;98816.84;4101474;28;20226;-48
2022/03/03 03:54:47;;;;;;;17.17;14.03;;;;;;;-2.26;67.41;98818.53;4117655;28;20574;-49
2022/03/03 03:56:48;;;;;;;15.93;14.57;;;;;;;-2.26;67.72;98806.97;4117741;28;20211;-47
2022/03/03 03:58:50;;;;;;;16.33;14.67;;;;;;;-2.31;67.30;98804.78;4117316;28;20597;-48
2022/03/03 04:00:52;;;;;;;16.97;15.60;;;;;;;-2.31;67.62;98806.63;4116944;28;20214;-48
2022/03/03 04:02:54;;;;;;;15.37;14.00;;;;;;;-2.32;67.44;98807.63;4116736;28;20644;-48
2022/03/03 04:04:56;;;;;;;18.37;16.47;;;;;;;-2.34;67.70;98807.78;4118808;28;20206;-47
2022/03/03 04:06:58;;;;;;;16.83;15.13;;;;;;;-2.32;67.51;98810.31;4135965;28;20209;-48
2022/03/03 04:09:00;;;;;;;16.63;14.90;;;;;;;-2.36;67.48;98803.56;4135283;28;20234;-47
2022/03/03 04:11:02;;;;;;;16.03;12.93;;;;;;;-2.36;67.54;98803.56;4135057;28;20210;-48
2022/03/03 04:13:04;;;;;;;17.37;15.77;;;;;;;-2.39;67.98;98801.25;4106373;28;20366;-48
2022/03/03 04:15:06;;;;;;;15.10;13.83;;;;;;;-2.42;67.72;98797.03;4103306;28;20300;-48
2022/03/03 04:17:08;;;;;;;16.63;15.23;;;;;;;-2.43;67.42;98795.38;4117078;28;20218;-49
2022/03/03 04:19:10;;;;;;;15.10;13.70;;;;;;;-2.43;67.73;98794.50;4109988;28;20218;-48
2022/03/03 04:21:11;;;;;;;16.53;15.07;;;;;;;-2.44;67.80;98790.16;4133798;28;20323;-48
2022/03/03 04:23:16;;;;;;;15.83;14.53;;;;;;;-2.44;68.07;98792.84;4119202;28;20225;-47
2022/03/03 04:25:18;;;;;;;15.13;13.83;;;;;;;-2.44;67.98;98798.19;4118896;28;20211;-50
2022/03/03 04:27:20;;;;;;;15.97;14.47;;;;;;;-2.44;67.66;98798.19;4134585;28;20210;-48
2022/03/03 04:29:23;;;;;;;16.13;14.93;;;;;;;-2.46;67.94;98794.84;4107188;28;20607;-48
2022/03/03 04:31:25;;;;;;;16.00;14.53;;;;;;;-2.50;67.44;98788.13;4108570;28;20253;-49
2022/03/03 04:33:27;;;;;;;15.10;13.90;;;;;;;-2.51;67.92;98797.16;4133522;28;20232;-48
2022/03/03 04:35:28;;;;;;;15.97;14.57;;;;;;;-2.60;68.23;98784.75;4118616;28;20214;-50
2022/03/03 04:37:30;;;;;;;13.57;12.47;;;;;;;-2.59;68.19;98798.00;4118446;28;20242;-49
2022/03/03 04:39:32;;;;;;;14.03;12.80;;;;;;;-2.61;68.42;98801.84;4134526;28;20243;-48
2022/03/03 04:41:33;;;;;;;15.17;13.87;;;;;;;-2.65;68.24;98795.09;4117919;28;20753;-49
2022/03/03 04:43:35;;;;;;;14.87;13.43;;;;;;;-2.65;68.25;98784.41;4122818;28;20206;-49
2022/03/03 04:45:37;;;;;;;14.47;13.27;;;;;;;-2.65;68.40;98787.06;4122985;28;20298;-49
2022/03/03 04:47:39;;;;;;;15.07;13.77;;;;;;;-2.62;68.19;98784.09;4122316;28;20226;-48
2022/03/03 04:49:41;;;;;;;19.43;15.73;;;;;;;-2.66;68.45;98794.25;4123186;28;20209;-47
2022/03/03 04:51:42;;;;;;;13.63;12.43;;;;;;;-2.72;68.10;98789.56;4110708;28;20626;-48
2022/03/03 04:53:44;;;;;;;17.17;14.80;;;;;;;-2.71;67.95;98785.88;4122505;28;20605;-50
2022/03/03 04:55:46;;;;;;;15.23;13.93;;;;;;;-2.69;67.82;98777.66;4135916;28;20201;-48
2022/03/03 04:57:48;;;;;;;15.13;13.93;;;;;;;-2.69;68.34;98788.38;4137289;28;20712;-49
2022/03/03 04:59:49;;;;;;;16.43;15.00;;;;;;;-2.67;68.24;98799.78;4137059;28;20206;-48
2022/03/03 05:01:52;;;;;;;15.87;14.23;;;;;;;-2.67;67.86;98787.22;4112335;28;20558;-49
2022/03/03 05:03:54;;;;;;;15.93;14.53;;;;;;;-2.67;67.91;98783.72;4138521;28;20205;-49
2022/03/03 05:05:55;;;;;;;16.77;13.80;;;;;;;-2.70;68.23;98781.34;4109585;28;20283;-49
2022/03/03 05:07:57;;;;;;;13.93;12.63;;;;;;;-2.71;68.30;98793.06;4109123;28;20281;-47
2022/03/03 05:09:59;;;;;;;14.67;13.53;;;;;;;-2.72;68.18;98783.38;4138732;28;20578;-49
2022/03/03 05:12:01;;;;;;;14.00;12.53;;;;;;;-2.69;68.01;98791.06;4112751;28;20215;-50
2022/03/03 05:14:03;;;;;;;14.57;13.17;;;;;;;-2.71;68.07;98785.88;4108756;28;20222;-49
2022/03/03 05:16:05;;;;;;;17.13;13.63;;;;;;;-2.71;67.99;98793.91;4107483;28;20706;-49
2022/03/03 05:18:07;;;;;;;15.00;13.73;;;;;;;-2.74;68.03;98786.19;4107827;28;20262;-48
2022/03/03 05:20:09;;;;;;;15.07;13.73;;;;;;;-2.77;68.31;98781.16;4136227;28;20258;-51
2022/03/03 05:22:11;;;;;;;16.63;15.33;;;;;;;-2.78;68.06;98784.00;4112416;28;20206;-49
2022/03/03 05:24:13;;;;;;;17.20;15.70;;;;;;;-2.83;68.14;98775.59;4136557;28;20210;-48
2022/03/03 05:26:15;;;;;;;18.73;15.20;;;;;;;-2.71;67.90;98775.19;4112890;28;20253;-48
2022/03/03 05:28:16;;;;;;;15.27;13.80;;;;;;;-2.79;68.14;98766.25;4105609;28;20226;-49
2022/03/03 05:30:18;;;;;;;16.23;14.77;;;;;;;-2.79;68.59;98767.13;4135840;28;20210;-47
2022/03/03 05:32:20;;;;;;;17.27;15.57;;;;;;;-2.80;68.81;98770.75;4113152;28;20214;-47
2022/03/03 05:34:22;;;;;;;16.13;14.93;;;;;;;-2.77;68.70;98758.91;4113158;28;20311;-48
2022/03/03 05:36:25;;;;;;;15.60;14.20;;;;;;;-2.80;68.30;98765.41;4121948;28;20277;-47
2022/03/03 05:38:29;;;;;;;17.40;13.80;;;;;;;-2.84;68.30;98764.06;4136691;28;20717;-49
2022/03/03 05:40:31;;;;;;;14.93;13.73;;;;;;;-2.85;68.73;98766.91;4106873;28;20697;-48
2022/03/03 05:42:33;;;;;;;14.97;13.87;;;;;;;-2.87;68.81;98766.22;4106427;28;20211;-47
2022/03/03 05:44:35;;;;;;;15.27;14.23;;;;;;;-2.88;68.80;98768.06;4105871;28;20199;-48
2022/03/03 05:46:37;;;;;;;16.23;14.83;;;;;;;-2.87;68.44;98774.25;4104766;28;20250;-48
2022/03/03 05:48:39;;;;;;;14.13;12.70;;;;;;;-2.90;68.68;98777.25;4120844;28;20233;-47
2022/03/03 05:50:40;;;;;;;14.63;13.43;;;;;;;-2.92;68.61;98771.22;4106823;28;20211;-48
2022/03/03 05:52:42;;;;;;;16.33;15.00;;;;;;;-2.94;68.65;98774.03;4121286;28;20605;-50
2022/03/03 05:54:44;;;;;;;16.73;13.50;;;;;;;-2.94;68.44;98774.03;4134217;28;20217;-48
2022/03/03 05:56:48;;;;;;;15.37;14.00;;;;;;;-2.94;68.60;98781.25;4120311;28;20198;-48
2022/03/03 05:58:51;;;;;;;15.10;13.90;;;;;;;-2.94;68.50;98775.91;4119805;28;20231;-50
2022/03/03 06:00:54;;;;;;;16.13;14.63;;;;;;;-2.96;68.64;98769.84;4137721;28;20299;-48
2022/03/03 06:02:56;;;;;;;14.87;13.37;;;;;;;-2.99;68.40;98775.53;4136504;28;20210;-49
2022/03/03 06:04:58;;;;;;;16.97;14.57;;;;;;;-3.01;69.01;98780.22;4106249;28;20270;-50
2022/03/03 06:07:08;;;;;;;13.93;12.73;;;;;;;-3.03;68.69;98779.50;4111966;28;20199;-48
2022/03/03 06:09:16;;;;;;;15.30;14.03;;;;;;;-3.05;69.24;98771.66;4139822;28;20217;-48
2022/03/03 06:11:21;;;;;;;15.77;13.93;;;;;;;-3.06;68.74;98771.81;4095429;28;20203;-48
2022/03/03 06:13:24;;;;;;;15.80;14.40;;;;;;;-3.09;68.82;98774.78;4119859;28;20944;-48
2022/03/03 06:15:29;;;;;;;13.77;12.37;;;;;;;-3.11;69.25;98766.09;4119563;28;20211;-47
2022/03/03 06:17:32;;;;;;;14.00;12.90;;;;;;;-3.09;68.91;98774.78;4111691;28;20674;-50
2022/03/03 06:19:41;;;;;;;15.87;13.87;;;;;;;-3.01;69.08;98772.19;4137814;28;20230;-48
2022/03/03 06:21:43;;;;;;;19.67;15.00;;;;;;;-3.04;69.10;98769.81;4109990;28;20217;-48
2022/03/03 06:23:45;;;;;;;15.20;14.03;;;;;;;-3.06;69.08;98759.25;4105069;28;20207;-49
2022/03/03 06:25:57;;;;;;;14.57;13.27;;;;;;;-3.06;68.83;98767.28;4118636;28;20214;-47
2022/03/03 06:27:58;;;;;;;15.20;13.63;;;;;;;-3.02;69.15;98759.81;4105859;28;20238;-48
2022/03/03 06:30:00;;;;;;;16.63;15.10;;;;;;;-2.98;69.21;98762.00;4118894;28;20277;-48
2022/03/03 06:32:07;;;;;;;16.57;15.03;;;;;;;-2.98;69.16;98748.63;4122021;28;20210;-48
2022/03/03 06:34:08;;;;;;;15.83;14.33;;;;;;;-2.97;68.87;98752.13;4138109;28;20265;-48
2022/03/03 06:36:10;;;;;;;17.60;16.07;;;;;;;-3.00;69.22;98747.09;4108561;28;20242;-48
2022/03/03 06:38:12;;;;;;;18.40;16.47;;;;;;;-2.92;69.08;98741.78;4121701;28;20256;-50
2022/03/03 06:40:13;;;;;;;22.70;18.33;;;;;;;-2.92;69.13;98729.25;4104343;28;20211;-47
2022/03/03 06:42:15;;;;;;;30.03;23.03;;;;;;;-2.94;69.00;98735.75;4105396;28;20647;-49
2022/03/03 06:44:17;;;;;;;22.87;20.87;;;;;;;-2.95;69.00;98734.09;4137086;28;20723;-49
2022/03/03 06:46:21;;;;;;;20.87;18.80;;;;;;;-2.92;69.03;98733.75;4104278;28;20210;-49
2022/03/03 06:48:23;;;;;;;23.73;17.63;;;;;;;-2.91;68.81;98727.41;4118553;28;20296;-49
2022/03/03 06:50:24;;;;;;;22.00;19.80;;;;;;;-2.88;68.71;98729.75;4109467;28;20213;-47
2022/03/03 06:52:26;;;;;;;25.40;21.37;;;;;;;-2.84;69.14;98731.94;4121153;28;20366;-48
2022/03/03 06:54:33;;;;;;;37.40;21.43;;;;;;;-2.79;69.26;98728.78;4117329;28;20234;-49
2022/03/03 06:56:35;;;;;;;23.77;21.23;;;;;;;-2.81;69.29;98733.47;4106019;28;20672;-48
2022/03/03 06:58:37;;;;;;;23.50;21.17;;;;;;;-2.79;69.19;98726.13;4120945;28;20230;-47
2022/03/03 07:00:39;;;;;;;22.00;20.00;;;;;;;-2.77;68.96;98732.13;4106541;28;20222;-51
2022/03/03 07:02:42;;;;;;;20.80;18.90;;;;;;;-2.74;69.07;98729.16;4105746;28;20618;-49
2022/03/03 07:04:49;;;;;;;18.77;16.87;;;;;;;-2.70;69.30;98727.81;4134757;28;20199;-47
2022/03/03 07:06:51;;;;;;;17.97;16.23;;;;;;;-2.69;69.29;98732.16;4107687;28;20213;-48
2022/03/03 07:08:56;;;;;;;19.77;18.03;;;;;;;-2.65;69.07;98738.88;4120129;28;20238;-48
2022/03/03 07:10:58;;;;;;;20.10;18.17;;;;;;;-2.63;69.79;98750.25;4109202;28;20207;-50
2022/03/03 07:12:59;;;;;;;20.90;17.73;;;;;;;-2.62;69.62;98757.31;4137567;28;20208;-49
2022/03/03 07:15:01;;;;;;;22.57;20.57;;;;;;;-2.61;69.35;98756.31;4120519;28;20226;-47
2022/03/03 07:17:05;;;;;;;19.77;17.67;;;;;;;-2.53;68.97;98759.00;4119604;28;20642;-48
2022/03/03 07:19:34;;;;;;;18.97;17.23;;;;;;;-2.53;69.24;98761.69;4109698;28;20207;-48
2022/03/03 07:22:14;;;;;;;18.33;16.80;;;;;;;-2.45;69.25;98751.84;4135758;28;20213;-48
2022/03/03 07:24:23;;;;;;;19.63;17.63;;;;;;;-2.38;68.85;98752.88;4139039;28;20956;-48
2022/03/03 07:26:25;;;;;;;20.93;18.93;;;;;;;-2.42;69.03;98750.69;4136236;28;20244;-48
2022/03/03 07:28:28;;;;;;;20.03;18.17;;;;;;;-2.40;68.93;98754.03;4119437;28;20349;-50
2022/03/03 07:30:30;;;;;;;25.23;18.80;;;;;;;-2.37;68.53;98751.00;4135954;28;20235;-48
2022/03/03 07:32:46;;;;;;;20.03;18.23;;;;;;;-2.33;68.83;98757.72;4104290;28;20215;-47
2022/03/03 07:34:53;;;;;;;18.97;17.17;;;;;;;-2.28;68.97;98755.41;4120956;28;20273;-48
2022/03/03 07:37:06;;;;;;;19.00;17.40;;;;;;;-1.93;69.29;98760.47;4136625;28;20209;-48
2022/03/03 07:39:11;;;;;;;20.37;18.53;;;;;;;-1.18;69.01;98754.75;4119121;28;20631;-48
2022/03/03 07:41:13;;;;;;;24.00;18.13;;;;;;;-0.80;67.60;98746.75;4118146;28;20203;-49
2022/03/03 07:43:19;;;;;;;20.00;18.03;;;;;;;-0.23;66.55;98750.00;4116248;28;20298;-47
2022/03/03 07:45:21;;;;;;;23.73;21.37;;;;;;;1.10;67.03;98756.31;4087980;28;21123;-49
2022/03/03 07:47:23;;;;;;;19.67;17.87;;;;;;;0.84;64.41;98753.22;4104813;28;20211;-48
2022/03/03 07:49:25;;;;;;;19.17;17.47;;;;;;;0.99;64.55;98751.38;4134086;28;20209;-48
2022/03/03 07:51:28;;;;;;;18.27;16.30;;;;;;;1.31;63.48;98750.19;4111062;28;20199;-47
2022/03/03 07:53:29;;;;;;;19.07;17.30;;;;;;;1.54;62.59;98746.34;4105201;28;20217;-48
2022/03/03 07:55:32;;;;;;;21.57;18.33;;;;;;;1.81;61.34;98748.34;4105939;28;20242;-48
2022/03/03 07:57:44;;;;;;;18.33;16.73;;;;;;;1.90;60.87;98733.75;4117977;28;20234;-49
2022/03/03 07:59:48;;;;;;;16.03;14.77;;;;;;;1.33;60.69;98737.38;4118546;28;20670;-48
2022/03/03 08:01:50;;;;;;;21.37;17.93;;;;;;;1.74;60.86;98736.66;4120321;28;20233;-49
2022/03/03 08:03:51;;;;;;;20.67;18.70;;;;;;;1.89;60.24;98733.94;4123030;28;20248;-50
2022/03/03 08:05:56;;;;;;;19.93;18.13;;;;;;;1.92;60.41;98731.69;4110286;28;20257;-49
2022/03/03 08:08:01;;;;;;;18.63;17.03;;;;;;;2.01;59.42;98735.94;4121415;28;20273;-49
2022/03/03 08:10:03;;;;;;;20.07;18.27;;;;;;;1.85;60.34;98738.88;4123090;28;20585;-48
2022/03/03 08:12:07;;;;;;;20.13;18.33;;;;;;;1.94;60.66;98732.31;4109578;28;20286;-49
2022/03/03 08:14:09;;;;;;;18.80;17.10;;;;;;;2.48;58.99;98741.59;4110574;28;20285;-48
2022/03/03 08:16:11;;;;;;;19.90;17.80;;;;;;;2.71;58.80;98739.53;4133943;28;20668;-50
2022/03/03 08:18:14;;;;;;;19.83;17.80;;;;;;;3.03;58.59;98740.81;4109593;28;20312;-49
2022/03/03 08:20:17;;;;;;;18.33;16.13;;;;;;;4.17;57.02;98731.81;4110550;28;20717;-50
2022/03/03 08:22:18;;;;;;;18.55;16.85;;;;;;;5.50;55.25;98736.84;4133340;28;20245;-49
2022/03/03 08:24:20;;;;;;;18.85;17.40;;;;;;;6.29;52.43;98738.22;4119100;28;20215;-50
2022/03/03 08:26:22;;;;;;;17.98;16.52;;;;;;;6.83;51.70;98741.19;4118500;28;20206;-49
2022/03/03 08:28:24;;;;;;;15.65;14.32;;;;;;;7.63;50.09;98749.25;4106768;28;20725;-48
2022/03/03 08:30:26;;;;;;;17.13;15.40;;;;;;;7.19;50.52;98757.63;4110006;28;20828;-49
2022/03/03 08:32:32;;;;;;;18.55;16.65;;;;;;;8.20;48.00;98756.97;4103989;28;20222;-49
2022/03/03 08:34:39;;;;;;;16.33;14.88;;;;;;;8.00;48.19;98749.03;4118903;28;20246;-48
2022/03/03 08:36:46;;;;;;;17.05;15.35;;;;;;;7.51;48.15;98751.06;4122013;28;20317;-50
2022/03/03 08:38:52;;;;;;;18.23;16.73;;;;;;;7.31;48.80;98750.41;4136614;28;20300;-47
2022/03/03 08:40:57;;;;;;;15.90;14.52;;;;;;;7.50;48.67;98744.75;4122181;28;20368;-49
2022/03/03 08:43:01;;;;;;;16.27;14.82;;;;;;;7.65;48.80;98747.13;4105404;28;20213;-49
2022/03/03 08:45:05;;;;;;;17.58;16.08;;;;;;;6.84;48.53;98737.44;4119515;28;20228;-48
2022/03/03 08:47:15;;;;;;;17.60;16.20;;;;;;;7.50;48.67;98742.03;4105946;28;20217;-47
2022/03/03 08:49:17;;;;;;;17.50;16.05;;;;;;;8.34;48.28;98744.88;4105069;28;20230;-47
2022/03/03 08:51:19;;;;;;;17.30;15.90;;;;;;;9.13;46.48;98748.06;4107820;28;20983;-48
2022/03/03 08:53:21;;;;;;;17.98;16.48;;;;;;;9.68;45.69;98746.69;4119829;28;20206;-48
2022/03/03 08:55:23;;;;;;;18.48;14.65;;;;;;;9.09;46.17;98753.16;4119293;28;20320;-48
2022/03/03 08:57:25;;;;;;;16.48;15.02;;;;;;;9.94;44.10;98751.63;4120210;28;20261;-48
2022/03/03 08:59:27;;;;;;;16.42;15.02;;;;;;;9.54;43.65;98753.44;4107806;28;20214;-48
2022/03/03 09:01:29;;;;;;;17.67;15.43;;;;;;;9.90;44.21;98755.91;4104593;28;20198;-47
2022/03/03 09:03:31;;;;;;;15.40;14.20;;;;;;;9.56;45.00;98759.50;4106655;28;20222;-48
2022/03/03 09:05:35;;;;;;;16.27;14.63;;;;;;;9.62;45.42;98758.56;4118603;28;20224;-48
2022/03/03 09:07:38;;;;;;;16.23;14.90;;;;;;;10.01;44.62;98760.53;4106279;28;20230;-48
2022/03/03 09:09:40;;;;;;;16.52;15.23;;;;;;;9.51;44.67;98762.94;4136625;28;20213;-48
2022/03/03 09:11:42;;;;;;;16.33;14.93;;;;;;;9.94;44.73;98757.91;4104567;28;20215;-49
2022/03/03 09:13:44;;;;;;;15.35;14.13;;;;;;;10.66;43.55;98757.25;4115943;28;20214;-48
2022/03/03 09:15:48;;;;;;;17.13;15.68;;;;;;;10.49;42.21;98758.28;4090670;28;20369;-48
2022/03/03 09:17:50;;;;;;;16.63;15.23;;;;;;;10.04;44.21;98758.19;4113400;28;20227;-48
2022/03/03 09:19:52;;;;;;;16.75;15.35;;;;;;;10.35;43.83;98744.06;4116822;28;20739;-48
2022/03/03 09:21:54;;;;;;;17.10;15.65;;;;;;;10.54;43.50;98742.78;4115886;28;20925;-48
2022/03/03 09:23:56;;;;;;;17.30;15.55;;;;;;;9.49;44.46;98731.47;4103022;28;20211;-49
2022/03/03 09:26:03;;;;;;;17.40;16.00;;;;;;;10.30;43.13;98729.44;4136361;28;20205;-47
2022/03/03 09:28:05;;;;;;;17.38;15.82;;;;;;;10.74;43.11;98734.16;4108709;28;20286;-50